sensor_id;sensor_type;location;lat;lon;timestamp;P1;durP1;ratioP1;P2;durP2;ratioP2
16296;SDS011;8256;56.144;13.394;2023-05-27T00:00:40;0.20;;;0.10;;
16296;SDS011;8256;56.144;13.394;2023-05-27T00:03:26;0.30;;;0.00;;
16296;SDS011;8256;56.144;13.394;2023-05-27T00:06:11;0.30;;;0.00;;
16296;SDS011;8256;56.144;13.394;2023-05-27T00:08:57;0.30;;;0.00;;
16296;SDS011;8256;56.144;13.394;2023-05-27T00:11:43;0.40;;;0.10;;
16296;SDS011;8256;56.144;13.394;2023-05-27T00:14:28;0.30;;;0.10;;
16296;SDS011;8256;56.144;13.394;2023-05-27T00:17:14;0.30;;;0.10;;
16296;SDS011;8256;56.144;13.394;2023-05-27T00:20:00;0.30;;;0.00;;
16296;SDS011;8256;56.144;13.394;2023-05-27T00:22:54;0.40;;;0.10;;
16296;SDS011;8256;56.144;13.394;2023-05-27T00:25:40;0.20;;;0.00;;
16296;SDS011;8256;56.144;13.394;2023-05-27T00:28:26;0.30;;;0.00;;
16296;SDS011;8256;56.144;13.394;2023-05-27T00:31:14;0.30;;;0.10;;
16296;SDS011;8256;56.144;13.394;2023-05-27T00:34:00;0.30;;;0.00;;
16296;SDS011;8256;56.144;13.394;2023-05-27T00:36:46;0.20;;;0.00;;
16296;SDS011;8256;56.144;13.394;2023-05-27T00:39:32;0.40;;;0.10;;
16296;SDS011;8256;56.144;13.394;2023-05-27T00:42:17;0.40;;;0.10;;
16296;SDS011;8256;56.144;13.394;2023-05-27T00:45:04;0.30;;;0.10;;
16296;SDS011;8256;56.144;13.394;2023-05-27T00:47:50;0.30;;;0.00;;
16296;SDS011;8256;56.144;13.394;2023-05-27T00:50:36;0.40;;;0.10;;
16296;SDS011;8256;56.144;13.394;2023-05-27T00:53:21;0.20;;;0.00;;
16296;SDS011;8256;56.144;13.394;2023-05-27T00:56:08;0.40;;;0.10;;
16296;SDS011;8256;56.144;13.394;2023-05-27T00:58:54;0.40;;;0.10;;
16296;SDS011;8256;56.144;13.394;2023-05-27T01:01:40;0.40;;;0.10;;
16296;SDS011;8256;56.144;13.394;2023-05-27T01:04:28;0.30;;;0.10;;
16296;SDS011;8256;56.144;13.394;2023-05-27T01:07:15;0.50;;;0.20;;
16296;SDS011;8256;56.144;13.394;2023-05-27T01:10:15;0.30;;;0.00;;
16296;SDS011;8256;56.144;13.394;2023-05-27T01:16:14;0.30;;;0.00;;
16296;SDS011;8256;56.144;13.394;2023-05-27T01:19:01;0.38;;;0.10;;
16296;SDS011;8256;56.144;13.394;2023-05-27T01:21:48;0.30;;;0.00;;
16296;SDS011;8256;56.144;13.394;2023-05-27T01:24:37;0.30;;;0.10;;
16296;SDS011;8256;56.144;13.394;2023-05-27T01:27:23;0.50;;;0.10;;
16296;SDS011;8256;56.144;13.394;2023-05-27T01:30:11;0.30;;;0.00;;
16296;SDS011;8256;56.144;13.394;2023-05-27T01:38:31;0.40;;;0.10;;
16296;SDS011;8256;56.144;13.394;2023-05-27T01:41:17;0.30;;;0.00;;
16296;SDS011;8256;56.144;13.394;2023-05-27T01:44:03;0.20;;;0.00;;
16296;SDS011;8256;56.144;13.394;2023-05-27T01:46:49;0.20;;;0.00;;
16296;SDS011;8256;56.144;13.394;2023-05-27T01:49:35;0.20;;;0.00;;
16296;SDS011;8256;56.144;13.394;2023-05-27T01:52:20;0.30;;;0.10;;
16296;SDS011;8256;56.144;13.394;2023-05-27T01:55:06;0.20;;;0.00;;
16296;SDS011;8256;56.144;13.394;2023-05-27T01:57:53;0.20;;;0.10;;
16296;SDS011;8256;56.144;13.394;2023-05-27T02:00:38;0.10;;;0.00;;
16296;SDS011;8256;56.144;13.394;2023-05-27T02:03:24;0.40;;;0.10;;
16296;SDS011;8256;56.144;13.394;2023-05-27T02:06:09;0.27;;;0.00;;
16296;SDS011;8256;56.144;13.394;2023-05-27T02:08:55;0.73;;;0.20;;
16296;SDS011;8256;56.144;13.394;2023-05-27T02:11:41;0.15;;;0.00;;
16296;SDS011;8256;56.144;13.394;2023-05-27T02:14:27;0.30;;;0.00;;
16296;SDS011;8256;56.144;13.394;2023-05-27T02:17:12;0.20;;;0.10;;
16296;SDS011;8256;56.144;13.394;2023-05-27T02:20:00;0.40;;;0.10;;
16296;SDS011;8256;56.144;13.394;2023-05-27T02:22:45;0.13;;;0.03;;
16296;SDS011;8256;56.144;13.394;2023-05-27T02:25:31;0.20;;;0.00;;
16296;SDS011;8256;56.144;13.394;2023-05-27T02:28:16;0.75;;;0.40;;
16296;SDS011;8256;56.144;13.394;2023-05-27T02:31:02;0.20;;;0.00;;
16296;SDS011;8256;56.144;13.394;2023-05-27T02:33:48;0.30;;;0.10;;
16296;SDS011;8256;56.144;13.394;2023-05-27T02:36:34;0.20;;;0.00;;
16296;SDS011;8256;56.144;13.394;2023-05-27T02:39:20;0.10;;;0.00;;
16296;SDS011;8256;56.144;13.394;2023-05-27T02:42:05;0.28;;;0.00;;
16296;SDS011;8256;56.144;13.394;2023-05-27T02:44:51;0.00;;;0.00;;
16296;SDS011;8256;56.144;13.394;2023-05-27T02:47:37;0.07;;;0.00;;
16296;SDS011;8256;56.144;13.394;2023-05-27T02:50:22;0.30;;;0.00;;
16296;SDS011;8256;56.144;13.394;2023-05-27T02:53:08;0.20;;;0.00;;
16296;SDS011;8256;56.144;13.394;2023-05-27T02:55:54;0.20;;;0.00;;
16296;SDS011;8256;56.144;13.394;2023-05-27T02:58:39;0.30;;;0.00;;
16296;SDS011;8256;56.144;13.394;2023-05-27T03:01:25;0.20;;;0.00;;
16296;SDS011;8256;56.144;13.394;2023-05-27T03:04:11;0.40;;;0.10;;
16296;SDS011;8256;56.144;13.394;2023-05-27T03:06:57;0.20;;;0.00;;
16296;SDS011;8256;56.144;13.394;2023-05-27T03:09:42;0.40;;;0.10;;
16296;SDS011;8256;56.144;13.394;2023-05-27T03:12:28;0.20;;;0.00;;
16296;SDS011;8256;56.144;13.394;2023-05-27T03:15:13;0.20;;;0.00;;
16296;SDS011;8256;56.144;13.394;2023-05-27T03:18:00;8.32;;;0.38;;
16296;SDS011;8256;56.144;13.394;2023-05-27T03:20:46;0.10;;;0.00;;
16296;SDS011;8256;56.144;13.394;2023-05-27T03:23:31;0.20;;;0.10;;
16296;SDS011;8256;56.144;13.394;2023-05-27T03:26:17;0.20;;;0.10;;
16296;SDS011;8256;56.144;13.394;2023-05-27T03:29:02;0.30;;;0.10;;
16296;SDS011;8256;56.144;13.394;2023-05-27T03:31:48;0.30;;;0.10;;
16296;SDS011;8256;56.144;13.394;2023-05-27T03:34:34;0.30;;;0.00;;
16296;SDS011;8256;56.144;13.394;2023-05-27T03:37:19;0.30;;;0.00;;
16296;SDS011;8256;56.144;13.394;2023-05-27T03:40:05;0.30;;;0.00;;
16296;SDS011;8256;56.144;13.394;2023-05-27T03:42:51;0.30;;;0.00;;
16296;SDS011;8256;56.144;13.394;2023-05-27T03:45:38;0.20;;;0.00;;
16296;SDS011;8256;56.144;13.394;2023-05-27T03:48:26;0.30;;;0.10;;
16296;SDS011;8256;56.144;13.394;2023-05-27T03:51:12;0.25;;;0.00;;
16296;SDS011;8256;56.144;13.394;2023-05-27T03:53:57;0.30;;;0.05;;
16296;SDS011;8256;56.144;13.394;2023-05-27T03:56:43;0.40;;;0.10;;
16296;SDS011;8256;56.144;13.394;2023-05-27T03:59:29;0.35;;;0.05;;
16296;SDS011;8256;56.144;13.394;2023-05-27T04:02:14;0.30;;;0.10;;
16296;SDS011;8256;56.144;13.394;2023-05-27T04:05:00;0.57;;;0.10;;
16296;SDS011;8256;56.144;13.394;2023-05-27T04:07:47;0.65;;;0.28;;
16296;SDS011;8256;56.144;13.394;2023-05-27T04:10:33;0.40;;;0.10;;
16296;SDS011;8256;56.144;13.394;2023-05-27T04:13:18;0.45;;;0.10;;
16296;SDS011;8256;56.144;13.394;2023-05-27T04:16:04;0.30;;;0.00;;
16296;SDS011;8256;56.144;13.394;2023-05-27T04:18:50;0.40;;;0.05;;
16296;SDS011;8256;56.144;13.394;2023-05-27T04:21:36;0.60;;;0.20;;
16296;SDS011;8256;56.144;13.394;2023-05-27T04:24:22;0.40;;;0.10;;
16296;SDS011;8256;56.144;13.394;2023-05-27T04:27:08;0.40;;;0.10;;
16296;SDS011;8256;56.144;13.394;2023-05-27T04:29:54;0.40;;;0.10;;
16296;SDS011;8256;56.144;13.394;2023-05-27T04:32:40;0.60;;;0.15;;
16296;SDS011;8256;56.144;13.394;2023-05-27T04:35:26;0.65;;;0.13;;
16296;SDS011;8256;56.144;13.394;2023-05-27T04:38:11;1.37;;;0.20;;
16296;SDS011;8256;56.144;13.394;2023-05-27T04:41:01;0.70;;;0.20;;
16296;SDS011;8256;56.144;13.394;2023-05-27T04:43:47;0.85;;;0.20;;
16296;SDS011;8256;56.144;13.394;2023-05-27T04:46:33;0.90;;;0.20;;
16296;SDS011;8256;56.144;13.394;2023-05-27T04:49:19;0.85;;;0.30;;
16296;SDS011;8256;56.144;13.394;2023-05-27T04:52:04;1.00;;;0.20;;
16296;SDS011;8256;56.144;13.394;2023-05-27T04:54:52;1.20;;;0.35;;
16296;SDS011;8256;56.144;13.394;2023-05-27T04:57:40;3.30;;;0.60;;
16296;SDS011;8256;56.144;13.394;2023-05-27T05:00:26;1.55;;;1.05;;
16296;SDS011;8256;56.144;13.394;2023-05-27T05:03:34;0.93;;;0.20;;
16296;SDS011;8256;56.144;13.394;2023-05-27T05:06:24;1.43;;;0.30;;
16296;SDS011;8256;56.144;13.394;2023-05-27T05:09:10;1.15;;;0.30;;
16296;SDS011;8256;56.144;13.394;2023-05-27T05:11:57;1.52;;;0.43;;
16296;SDS011;8256;56.144;13.394;2023-05-27T05:14:42;1.13;;;0.35;;
16296;SDS011;8256;56.144;13.394;2023-05-27T05:17:28;0.98;;;0.22;;
16296;SDS011;8256;56.144;13.394;2023-05-27T05:20:13;1.07;;;0.30;;
16296;SDS011;8256;56.144;13.394;2023-05-27T05:22:59;0.93;;;0.20;;
16296;SDS011;8256;56.144;13.394;2023-05-27T05:25:45;1.23;;;0.38;;
16296;SDS011;8256;56.144;13.394;2023-05-27T05:28:30;0.90;;;0.20;;
16296;SDS011;8256;56.144;13.394;2023-05-27T05:31:16;1.70;;;0.38;;
16296;SDS011;8256;56.144;13.394;2023-05-27T05:34:02;1.30;;;0.20;;
16296;SDS011;8256;56.144;13.394;2023-05-27T05:36:47;1.50;;;0.50;;
16296;SDS011;8256;56.144;13.394;2023-05-27T05:39:33;1.73;;;0.75;;
16296;SDS011;8256;56.144;13.394;2023-05-27T05:42:18;0.90;;;0.28;;
16296;SDS011;8256;56.144;13.394;2023-05-27T05:45:04;2.13;;;0.82;;
16296;SDS011;8256;56.144;13.394;2023-05-27T05:47:50;1.57;;;0.40;;
16296;SDS011;8256;56.144;13.394;2023-05-27T05:50:36;0.75;;;0.20;;
16296;SDS011;8256;56.144;13.394;2023-05-27T05:53:21;1.13;;;0.38;;
16296;SDS011;8256;56.144;13.394;2023-05-27T05:56:07;0.95;;;0.30;;
16296;SDS011;8256;56.144;13.394;2023-05-27T05:58:53;1.77;;;0.45;;
16296;SDS011;8256;56.144;13.394;2023-05-27T06:01:38;2.13;;;0.33;;
16296;SDS011;8256;56.144;13.394;2023-05-27T06:04:24;1.92;;;0.35;;
16296;SDS011;8256;56.144;13.394;2023-05-27T06:07:10;1.10;;;0.30;;
16296;SDS011;8256;56.144;13.394;2023-05-27T06:09:55;1.40;;;0.60;;
16296;SDS011;8256;56.144;13.394;2023-05-27T06:12:41;2.00;;;0.63;;
16296;SDS011;8256;56.144;13.394;2023-05-27T06:15:26;1.80;;;0.57;;
16296;SDS011;8256;56.144;13.394;2023-05-27T06:18:12;2.05;;;1.65;;
16296;SDS011;8256;56.144;13.394;2023-05-27T06:20:58;2.03;;;0.38;;
16296;SDS011;8256;56.144;13.394;2023-05-27T06:23:43;5.68;;;0.73;;
16296;SDS011;8256;56.144;13.394;2023-05-27T06:26:29;2.25;;;0.68;;
16296;SDS011;8256;56.144;13.394;2023-05-27T06:29:14;0.97;;;0.27;;
16296;SDS011;8256;56.144;13.394;2023-05-27T06:32:00;2.38;;;0.40;;
16296;SDS011;8256;56.144;13.394;2023-05-27T06:34:46;1.15;;;0.35;;
16296;SDS011;8256;56.144;13.394;2023-05-27T06:37:31;1.50;;;0.30;;
16296;SDS011;8256;56.144;13.394;2023-05-27T06:40:17;2.78;;;0.60;;
16296;SDS011;8256;56.144;13.394;2023-05-27T06:43:02;6.07;;;0.63;;
16296;SDS011;8256;56.144;13.394;2023-05-27T06:45:48;1.40;;;0.40;;
16296;SDS011;8256;56.144;13.394;2023-05-27T06:48:34;0.90;;;0.20;;
16296;SDS011;8256;56.144;13.394;2023-05-27T06:51:20;1.30;;;0.47;;
16296;SDS011;8256;56.144;13.394;2023-05-27T06:54:05;1.77;;;0.50;;
16296;SDS011;8256;56.144;13.394;2023-05-27T06:56:51;4.70;;;0.70;;
16296;SDS011;8256;56.144;13.394;2023-05-27T06:59:37;1.17;;;0.30;;
16296;SDS011;8256;56.144;13.394;2023-05-27T07:02:23;1.58;;;0.60;;
16296;SDS011;8256;56.144;13.394;2023-05-27T07:05:08;3.45;;;0.68;;
16296;SDS011;8256;56.144;13.394;2023-05-27T07:07:54;2.75;;;0.65;;
16296;SDS011;8256;56.144;13.394;2023-05-27T07:10:39;1.40;;;0.40;;
16296;SDS011;8256;56.144;13.394;2023-05-27T07:13:25;1.38;;;0.47;;
16296;SDS011;8256;56.144;13.394;2023-05-27T07:16:10;2.47;;;0.70;;
16296;SDS011;8256;56.144;13.394;2023-05-27T07:18:56;1.23;;;0.40;;
16296;SDS011;8256;56.144;13.394;2023-05-27T07:21:42;1.33;;;0.35;;
16296;SDS011;8256;56.144;13.394;2023-05-27T07:24:27;2.63;;;0.63;;
16296;SDS011;8256;56.144;13.394;2023-05-27T07:27:13;1.13;;;0.40;;
16296;SDS011;8256;56.144;13.394;2023-05-27T07:29:59;1.48;;;0.20;;
16296;SDS011;8256;56.144;13.394;2023-05-27T07:32:45;13.70;;;0.57;;
16296;SDS011;8256;56.144;13.394;2023-05-27T07:35:30;2.00;;;0.52;;
16296;SDS011;8256;56.144;13.394;2023-05-27T07:38:16;1.43;;;0.30;;
16296;SDS011;8256;56.144;13.394;2023-05-27T07:41:02;1.80;;;0.47;;
16296;SDS011;8256;56.144;13.394;2023-05-27T07:43:47;1.30;;;0.40;;
16296;SDS011;8256;56.144;13.394;2023-05-27T07:46:33;1.25;;;0.30;;
16296;SDS011;8256;56.144;13.394;2023-05-27T07:49:19;1.60;;;0.60;;
16296;SDS011;8256;56.144;13.394;2023-05-27T07:52:06;1.00;;;0.20;;
16296;SDS011;8256;56.144;13.394;2023-05-27T07:54:52;1.88;;;0.50;;
16296;SDS011;8256;56.144;13.394;2023-05-27T07:57:37;1.85;;;0.40;;
16296;SDS011;8256;56.144;13.394;2023-05-27T08:00:23;2.67;;;1.05;;
16296;SDS011;8256;56.144;13.394;2023-05-27T08:03:08;1.25;;;0.30;;
16296;SDS011;8256;56.144;13.394;2023-05-27T08:05:54;1.77;;;0.40;;
16296;SDS011;8256;56.144;13.394;2023-05-27T08:08:40;1.85;;;0.40;;
16296;SDS011;8256;56.144;13.394;2023-05-27T08:11:25;2.05;;;0.47;;
16296;SDS011;8256;56.144;13.394;2023-05-27T08:14:11;1.50;;;0.40;;
16296;SDS011;8256;56.144;13.394;2023-05-27T08:16:58;1.90;;;0.50;;
16296;SDS011;8256;56.144;13.394;2023-05-27T08:19:44;3.77;;;0.53;;
16296;SDS011;8256;56.144;13.394;2023-05-27T08:22:29;1.65;;;0.40;;
16296;SDS011;8256;56.144;13.394;2023-05-27T08:25:15;2.58;;;0.70;;
16296;SDS011;8256;56.144;13.394;2023-05-27T08:28:01;4.22;;;0.55;;
16296;SDS011;8256;56.144;13.394;2023-05-27T08:30:47;2.30;;;0.50;;
16296;SDS011;8256;56.144;13.394;2023-05-27T08:33:33;10.47;;;0.80;;
16296;SDS011;8256;56.144;13.394;2023-05-27T08:36:18;2.22;;;0.70;;
16296;SDS011;8256;56.144;13.394;2023-05-27T08:39:04;1.25;;;0.30;;
16296;SDS011;8256;56.144;13.394;2023-05-27T08:41:50;1.88;;;0.60;;
16296;SDS011;8256;56.144;13.394;2023-05-27T08:44:37;2.30;;;0.95;;
16296;SDS011;8256;56.144;13.394;2023-05-27T08:47:23;1.20;;;0.30;;
16296;SDS011;8256;56.144;13.394;2023-05-27T08:50:09;2.05;;;0.68;;
16296;SDS011;8256;56.144;13.394;2023-05-27T08:52:55;1.33;;;0.38;;
16296;SDS011;8256;56.144;13.394;2023-05-27T08:55:41;1.67;;;0.38;;
16296;SDS011;8256;56.144;13.394;2023-05-27T08:58:27;1.60;;;0.68;;
16296;SDS011;8256;56.144;13.394;2023-05-27T09:01:15;2.40;;;0.63;;
16296;SDS011;8256;56.144;13.394;2023-05-27T09:04:01;1.80;;;0.50;;
16296;SDS011;8256;56.144;13.394;2023-05-27T09:06:47;1.75;;;0.55;;
16296;SDS011;8256;56.144;13.394;2023-05-27T09:09:33;1.88;;;0.60;;
16296;SDS011;8256;56.144;13.394;2023-05-27T09:12:21;1.80;;;0.82;;
16296;SDS011;8256;56.144;13.394;2023-05-27T09:15:07;1.40;;;0.40;;
16296;SDS011;8256;56.144;13.394;2023-05-27T09:17:52;1.10;;;0.30;;
16296;SDS011;8256;56.144;13.394;2023-05-27T09:20:38;1.40;;;0.40;;
16296;SDS011;8256;56.144;13.394;2023-05-27T09:23:24;1.40;;;0.50;;
16296;SDS011;8256;56.144;13.394;2023-05-27T09:26:10;1.63;;;0.50;;
16296;SDS011;8256;56.144;13.394;2023-05-27T09:28:58;1.97;;;0.53;;
16296;SDS011;8256;56.144;13.394;2023-05-27T09:31:44;1.27;;;0.38;;
16296;SDS011;8256;56.144;13.394;2023-05-27T09:34:30;1.40;;;0.40;;
16296;SDS011;8256;56.144;13.394;2023-05-27T09:37:16;6.93;;;0.68;;
16296;SDS011;8256;56.144;13.394;2023-05-27T09:40:09;1.50;;;0.40;;
16296;SDS011;8256;56.144;13.394;2023-05-27T09:42:55;1.63;;;0.43;;
16296;SDS011;8256;56.144;13.394;2023-05-27T09:45:41;1.20;;;0.30;;
16296;SDS011;8256;56.144;13.394;2023-05-27T09:48:30;1.33;;;0.35;;
16296;SDS011;8256;56.144;13.394;2023-05-27T09:51:19;1.25;;;0.30;;
16296;SDS011;8256;56.144;13.394;2023-05-27T09:54:04;1.33;;;0.35;;
16296;SDS011;8256;56.144;13.394;2023-05-27T09:56:51;1.53;;;0.30;;
16296;SDS011;8256;56.144;13.394;2023-05-27T09:59:37;1.50;;;0.30;;
16296;SDS011;8256;56.144;13.394;2023-05-27T10:02:23;2.10;;;0.45;;
16296;SDS011;8256;56.144;13.394;2023-05-27T10:05:10;1.38;;;0.30;;
16296;SDS011;8256;56.144;13.394;2023-05-27T10:07:56;1.67;;;0.50;;
16296;SDS011;8256;56.144;13.394;2023-05-27T10:10:42;1.63;;;0.40;;
16296;SDS011;8256;56.144;13.394;2023-05-27T10:13:27;1.40;;;0.30;;
16296;SDS011;8256;56.144;13.394;2023-05-27T10:16:20;2.58;;;0.90;;
16296;SDS011;8256;56.144;13.394;2023-05-27T10:19:09;1.33;;;0.30;;
16296;SDS011;8256;56.144;13.394;2023-05-27T10:21:55;1.80;;;0.60;;
16296;SDS011;8256;56.144;13.394;2023-05-27T10:24:40;1.70;;;0.40;;
16296;SDS011;8256;56.144;13.394;2023-05-27T10:27:26;1.83;;;0.50;;
16296;SDS011;8256;56.144;13.394;2023-05-27T10:30:12;1.98;;;0.40;;
16296;SDS011;8256;56.144;13.394;2023-05-27T10:32:59;2.42;;;0.88;;
16296;SDS011;8256;56.144;13.394;2023-05-27T10:35:48;1.52;;;0.43;;
16296;SDS011;8256;56.144;13.394;2023-05-27T10:38:34;1.90;;;0.50;;
16296;SDS011;8256;56.144;13.394;2023-05-27T10:41:21;1.88;;;0.55;;
16296;SDS011;8256;56.144;13.394;2023-05-27T10:44:08;2.05;;;0.70;;
16296;SDS011;8256;56.144;13.394;2023-05-27T10:47:00;2.05;;;0.65;;
16296;SDS011;8256;56.144;13.394;2023-05-27T10:49:48;3.05;;;0.55;;
16296;SDS011;8256;56.144;13.394;2023-05-27T10:52:34;2.13;;;0.60;;
16296;SDS011;8256;56.144;13.394;2023-05-27T10:55:22;1.83;;;0.52;;
16296;SDS011;8256;56.144;13.394;2023-05-27T10:58:08;1.98;;;0.57;;
16296;SDS011;8256;56.144;13.394;2023-05-27T11:00:54;2.15;;;0.50;;
16296;SDS011;8256;56.144;13.394;2023-05-27T11:03:43;3.90;;;0.90;;
16296;SDS011;8256;56.144;13.394;2023-05-27T11:06:35;2.30;;;0.50;;
16296;SDS011;8256;56.144;13.394;2023-05-27T11:09:20;2.28;;;0.50;;
16296;SDS011;8256;56.144;13.394;2023-05-27T11:12:07;2.08;;;0.60;;
16296;SDS011;8256;56.144;13.394;2023-05-27T11:14:53;2.05;;;0.82;;
16296;SDS011;8256;56.144;13.394;2023-05-27T11:17:39;1.90;;;0.50;;
16296;SDS011;8256;56.144;13.394;2023-05-27T11:20:33;1.77;;;0.50;;
16296;SDS011;8256;56.144;13.394;2023-05-27T11:23:19;1.80;;;0.60;;
16296;SDS011;8256;56.144;13.394;2023-05-27T11:26:19;1.80;;;0.50;;
16296;SDS011;8256;56.144;13.394;2023-05-27T11:29:06;3.25;;;0.60;;
16296;SDS011;8256;56.144;13.394;2023-05-27T11:31:52;2.90;;;0.77;;
16296;SDS011;8256;56.144;13.394;2023-05-27T11:34:38;2.00;;;0.50;;
16296;SDS011;8256;56.144;13.394;2023-05-27T11:37:24;1.85;;;0.50;;
16296;SDS011;8256;56.144;13.394;2023-05-27T11:40:16;2.38;;;0.70;;
16296;SDS011;8256;56.144;13.394;2023-05-27T11:43:02;1.90;;;0.47;;
16296;SDS011;8256;56.144;13.394;2023-05-27T11:45:47;3.38;;;1.00;;
16296;SDS011;8256;56.144;13.394;2023-05-27T11:48:33;2.07;;;0.67;;
16296;SDS011;8256;56.144;13.394;2023-05-27T11:51:25;4.18;;;0.90;;
16296;SDS011;8256;56.144;13.394;2023-05-27T11:57:02;3.30;;;0.65;;
16296;SDS011;8256;56.144;13.394;2023-05-27T11:59:52;2.90;;;1.02;;
16296;SDS011;8256;56.144;13.394;2023-05-27T12:02:37;3.23;;;1.13;;
16296;SDS011;8256;56.144;13.394;2023-05-27T12:05:23;2.67;;;0.70;;
16296;SDS011;8256;56.144;13.394;2023-05-27T12:08:08;2.60;;;1.00;;
16296;SDS011;8256;56.144;13.394;2023-05-27T12:10:54;2.47;;;0.77;;
16296;SDS011;8256;56.144;13.394;2023-05-27T12:13:40;2.33;;;0.82;;
16296;SDS011;8256;56.144;13.394;2023-05-27T12:16:25;2.60;;;0.87;;
16296;SDS011;8256;56.144;13.394;2023-05-27T12:19:11;3.03;;;1.10;;
16296;SDS011;8256;56.144;13.394;2023-05-27T12:21:57;2.60;;;0.77;;
16296;SDS011;8256;56.144;13.394;2023-05-27T12:24:42;1.65;;;0.43;;
16296;SDS011;8256;56.144;13.394;2023-05-27T12:27:28;1.98;;;0.60;;
16296;SDS011;8256;56.144;13.394;2023-05-27T12:30:13;2.30;;;0.70;;
16296;SDS011;8256;56.144;13.394;2023-05-27T12:32:59;2.30;;;0.85;;
16296;SDS011;8256;56.144;13.394;2023-05-27T12:35:45;2.22;;;0.70;;
16296;SDS011;8256;56.144;13.394;2023-05-27T12:38:31;2.95;;;0.90;;
16296;SDS011;8256;56.144;13.394;2023-05-27T12:41:16;2.25;;;0.65;;
16296;SDS011;8256;56.144;13.394;2023-05-27T12:44:02;2.30;;;0.70;;
16296;SDS011;8256;56.144;13.394;2023-05-27T12:46:47;2.90;;;1.00;;
16296;SDS011;8256;56.144;13.394;2023-05-27T12:49:33;3.20;;;1.00;;
16296;SDS011;8256;56.144;13.394;2023-05-27T12:52:18;3.10;;;1.10;;
16296;SDS011;8256;56.144;13.394;2023-05-27T12:55:05;3.03;;;1.23;;
16296;SDS011;8256;56.144;13.394;2023-05-27T12:57:51;3.00;;;1.30;;
16296;SDS011;8256;56.144;13.394;2023-05-27T13:00:36;3.28;;;1.45;;
16296;SDS011;8256;56.144;13.394;2023-05-27T13:03:22;4.95;;;2.20;;
16296;SDS011;8256;56.144;13.394;2023-05-27T13:06:08;5.90;;;1.88;;
16296;SDS011;8256;56.144;13.394;2023-05-27T13:08:53;3.95;;;2.35;;
16296;SDS011;8256;56.144;13.394;2023-05-27T13:11:39;4.83;;;2.10;;
16296;SDS011;8256;56.144;13.394;2023-05-27T13:14:25;4.97;;;2.20;;
16296;SDS011;8256;56.144;13.394;2023-05-27T13:17:10;3.97;;;2.45;;
16296;SDS011;8256;56.144;13.394;2023-05-27T13:19:56;3.70;;;2.60;;
16296;SDS011;8256;56.144;13.394;2023-05-27T13:22:42;3.90;;;2.72;;
16296;SDS011;8256;56.144;13.394;2023-05-27T13:25:28;4.33;;;2.57;;
16296;SDS011;8256;56.144;13.394;2023-05-27T13:28:14;5.35;;;2.92;;
16296;SDS011;8256;56.144;13.394;2023-05-27T13:31:00;5.07;;;3.05;;
16296;SDS011;8256;56.144;13.394;2023-05-27T13:33:46;4.85;;;3.58;;
16296;SDS011;8256;56.144;13.394;2023-05-27T13:36:31;4.68;;;3.53;;
16296;SDS011;8256;56.144;13.394;2023-05-27T13:39:17;5.13;;;3.93;;
16296;SDS011;8256;56.144;13.394;2023-05-27T13:42:03;6.05;;;3.72;;
16296;SDS011;8256;56.144;13.394;2023-05-27T13:44:49;4.07;;;3.35;;
16296;SDS011;8256;56.144;13.394;2023-05-27T13:47:34;4.28;;;3.65;;
16296;SDS011;8256;56.144;13.394;2023-05-27T13:50:20;4.63;;;3.83;;
16296;SDS011;8256;56.144;13.394;2023-05-27T13:53:06;5.70;;;3.50;;
16296;SDS011;8256;56.144;13.394;2023-05-27T13:55:51;4.47;;;3.40;;
16296;SDS011;8256;56.144;13.394;2023-05-27T13:58:37;4.55;;;4.10;;
16296;SDS011;8256;56.144;13.394;2023-05-27T14:01:23;4.05;;;3.50;;
16296;SDS011;8256;56.144;13.394;2023-05-27T14:04:08;4.53;;;4.05;;
16296;SDS011;8256;56.144;13.394;2023-05-27T14:06:54;6.50;;;4.10;;
16296;SDS011;8256;56.144;13.394;2023-05-27T14:09:39;4.40;;;3.80;;
16296;SDS011;8256;56.144;13.394;2023-05-27T14:12:25;6.20;;;4.53;;
16296;SDS011;8256;56.144;13.394;2023-05-27T14:15:11;4.85;;;4.22;;
16296;SDS011;8256;56.144;13.394;2023-05-27T14:17:56;5.05;;;3.75;;
16296;SDS011;8256;56.144;13.394;2023-05-27T14:20:42;5.40;;;4.27;;
16296;SDS011;8256;56.144;13.394;2023-05-27T14:23:28;4.93;;;3.67;;
16296;SDS011;8256;56.144;13.394;2023-05-27T14:26:14;4.30;;;3.78;;
16296;SDS011;8256;56.144;13.394;2023-05-27T14:29:00;5.30;;;4.15;;
16296;SDS011;8256;56.144;13.394;2023-05-27T14:31:46;4.75;;;4.25;;
16296;SDS011;8256;56.144;13.394;2023-05-27T14:34:32;5.40;;;4.10;;
16296;SDS011;8256;56.144;13.394;2023-05-27T14:37:17;7.40;;;3.50;;
16296;SDS011;8256;56.144;13.394;2023-05-27T14:40:03;8.93;;;4.13;;
16296;SDS011;8256;56.144;13.394;2023-05-27T14:42:49;5.25;;;3.25;;
16296;SDS011;8256;56.144;13.394;2023-05-27T14:45:34;4.55;;;3.95;;
16296;SDS011;8256;56.144;13.394;2023-05-27T14:48:20;5.30;;;3.57;;
16296;SDS011;8256;56.144;13.394;2023-05-27T14:51:06;4.60;;;3.38;;
16296;SDS011;8256;56.144;13.394;2023-05-27T14:53:51;4.35;;;3.40;;
16296;SDS011;8256;56.144;13.394;2023-05-27T14:56:37;4.93;;;4.10;;
16296;SDS011;8256;56.144;13.394;2023-05-27T14:59:22;4.55;;;3.85;;
16296;SDS011;8256;56.144;13.394;2023-05-27T15:02:08;4.53;;;4.03;;
16296;SDS011;8256;56.144;13.394;2023-05-27T15:04:54;7.65;;;4.18;;
16296;SDS011;8256;56.144;13.394;2023-05-27T15:07:39;4.78;;;4.25;;
16296;SDS011;8256;56.144;13.394;2023-05-27T15:10:25;4.50;;;3.80;;
16296;SDS011;8256;56.144;13.394;2023-05-27T15:13:10;4.55;;;4.05;;
16296;SDS011;8256;56.144;13.394;2023-05-27T15:15:59;4.30;;;3.70;;
16296;SDS011;8256;56.144;13.394;2023-05-27T15:18:45;4.25;;;3.42;;
16296;SDS011;8256;56.144;13.394;2023-05-27T15:21:30;3.95;;;3.35;;
16296;SDS011;8256;56.144;13.394;2023-05-27T15:24:16;6.82;;;4.10;;
16296;SDS011;8256;56.144;13.394;2023-05-27T15:27:02;5.65;;;4.72;;
16296;SDS011;8256;56.144;13.394;2023-05-27T15:29:48;4.87;;;4.37;;
16296;SDS011;8256;56.144;13.394;2023-05-27T15:32:33;4.75;;;4.20;;
16296;SDS011;8256;56.144;13.394;2023-05-27T15:35:19;4.45;;;4.05;;
16296;SDS011;8256;56.144;13.394;2023-05-27T15:38:04;5.47;;;4.50;;
16296;SDS011;8256;56.144;13.394;2023-05-27T15:40:50;5.05;;;4.15;;
16296;SDS011;8256;56.144;13.394;2023-05-27T15:43:36;9.00;;;4.83;;
16296;SDS011;8256;56.144;13.394;2023-05-27T15:46:21;4.45;;;3.63;;
16296;SDS011;8256;56.144;13.394;2023-05-27T15:49:07;4.57;;;4.00;;
16296;SDS011;8256;56.144;13.394;2023-05-27T15:51:53;6.15;;;4.07;;
16296;SDS011;8256;56.144;13.394;2023-05-27T15:54:38;5.13;;;4.63;;
16296;SDS011;8256;56.144;13.394;2023-05-27T15:57:24;4.40;;;3.50;;
16296;SDS011;8256;56.144;13.394;2023-05-27T16:00:10;4.22;;;3.30;;
16296;SDS011;8256;56.144;13.394;2023-05-27T16:02:56;4.72;;;3.53;;
16296;SDS011;8256;56.144;13.394;2023-05-27T16:05:42;5.60;;;3.58;;
16296;SDS011;8256;56.144;13.394;2023-05-27T16:08:27;5.30;;;3.83;;
16296;SDS011;8256;56.144;13.394;2023-05-27T16:11:13;4.43;;;3.37;;
16296;SDS011;8256;56.144;13.394;2023-05-27T16:13:58;4.47;;;3.53;;
16296;SDS011;8256;56.144;13.394;2023-05-27T16:16:45;5.10;;;3.63;;
16296;SDS011;8256;56.144;13.394;2023-05-27T16:19:31;4.63;;;3.95;;
16296;SDS011;8256;56.144;13.394;2023-05-27T16:22:17;5.32;;;3.80;;
16296;SDS011;8256;56.144;13.394;2023-05-27T16:25:03;4.10;;;2.90;;
16296;SDS011;8256;56.144;13.394;2023-05-27T16:27:48;4.72;;;3.30;;
16296;SDS011;8256;56.144;13.394;2023-05-27T16:30:34;4.05;;;3.33;;
16296;SDS011;8256;56.144;13.394;2023-05-27T16:33:20;4.53;;;3.15;;
16296;SDS011;8256;56.144;13.394;2023-05-27T16:36:05;6.20;;;3.72;;
16296;SDS011;8256;56.144;13.394;2023-05-27T16:38:51;4.33;;;3.50;;
16296;SDS011;8256;56.144;13.394;2023-05-27T16:41:37;4.38;;;3.00;;
16296;SDS011;8256;56.144;13.394;2023-05-27T16:44:22;3.88;;;2.75;;
16296;SDS011;8256;56.144;13.394;2023-05-27T16:47:08;5.13;;;3.67;;
16296;SDS011;8256;56.144;13.394;2023-05-27T16:49:54;4.47;;;3.88;;
16296;SDS011;8256;56.144;13.394;2023-05-27T16:52:39;5.90;;;3.63;;